SYN001 ESGG-ENBR
Flight info
| Callsign | SYN001 |
|---|---|
| Flight time | 0h 54m |
| Altitude | 36000 |
| Route | DETNA DCT ARTOR DCT TITUX DCT PESUR |
| Aircraft | BCS3/M-SBDE2E3GIRWXY/LB1 |
Departure
| Time | 2026-05-06 18:03 |
|---|---|
| Airport | Göteborg Landvetter Airport (ESGG) |
Arrival
| Time | 2026-05-06 18:57 |
|---|---|
| Airport | Bergen Airport, Flesland (ENBR) |
| Time | Latitude | Longitude | Altitude | Speed | Heading |
|---|---|---|---|---|---|
| 2026-05-06 17:48 | 57.66677 | 12.29232 | 482 ft | 0 kts | 116° |
| 2026-05-06 17:55 | 57.66681 | 12.29215 | 509 ft | 3 kts | 116° |
| 2026-05-06 17:55 | 57.66690 | 12.29184 | 509 ft | 3 kts | 111° |
| 2026-05-06 17:55 | 57.66693 | 12.29148 | 509 ft | 3 kts | 83° |
| 2026-05-06 17:56 | 57.66689 | 12.29113 | 509 ft | 3 kts | 69° |
| 2026-05-06 17:56 | 57.66680 | 12.29081 | 509 ft | 3 kts | 42° |
| 2026-05-06 17:56 | 57.66673 | 12.29070 | 509 ft | 0 kts | 25° |
| 2026-05-06 17:58 | 57.66677 | 12.29074 | 509 ft | 2 kts | 25° |
| 2026-05-06 17:58 | 57.66694 | 12.29089 | 509 ft | 6 kts | 25° |
| 2026-05-06 17:58 | 57.66754 | 12.29118 | 510 ft | 10 kts | 342° |
| 2026-05-06 17:59 | 57.66794 | 12.29029 | 510 ft | 9 kts | 308° |
| 2026-05-06 17:59 | 57.66857 | 12.29016 | 510 ft | 12 kts | 24° |
| 2026-05-06 17:59 | 57.66946 | 12.29101 | 511 ft | 15 kts | 27° |
| 2026-05-06 17:59 | 57.67040 | 12.29187 | 512 ft | 15 kts | 26° |
| 2026-05-06 18:00 | 57.67131 | 12.29271 | 513 ft | 15 kts | 26° |
| 2026-05-06 18:00 | 57.67223 | 12.29354 | 514 ft | 14 kts | 26° |
| 2026-05-06 18:00 | 57.67304 | 12.29427 | 515 ft | 9 kts | 25° |
| 2026-05-06 18:00 | 57.67334 | 12.29454 | 515 ft | 0 kts | 25° |
| 2026-05-06 18:01 | 57.67341 | 12.29460 | 515 ft | 4 kts | 25° |
| 2026-05-06 18:01 | 57.67408 | 12.29446 | 516 ft | 13 kts | 316° |
| 2026-05-06 18:01 | 57.67454 | 12.29290 | 516 ft | 14 kts | 285° |
| 2026-05-06 18:01 | 57.67449 | 12.29105 | 514 ft | 15 kts | 251° |
| 2026-05-06 18:02 | 57.67393 | 12.28987 | 514 ft | 0 kts | 213° |
| 2026-05-06 18:02 | 57.67387 | 12.28980 | 514 ft | 3 kts | 211° |
| 2026-05-06 18:02 | 57.67233 | 12.28835 | 515 ft | 58 kts | 204° |
| 2026-05-06 18:02 | 57.66656 | 12.28318 | 508 ft | 124 kts | 206° |
| 2026-05-06 18:03 | 57.65765 | 12.27520 | 884 ft | 146 kts | 208° |
| 2026-05-06 18:03 | 57.64790 | 12.26649 | 1567 ft | 164 kts | 210° |
| 2026-05-06 18:03 | 57.63772 | 12.25640 | 2500 ft | 168 kts | 212° |
| 2026-05-06 18:03 | 57.62727 | 12.24503 | 3303 ft | 177 kts | 210° |
| 2026-05-06 18:04 | 57.61608 | 12.23459 | 4146 ft | 186 kts | 204° |
| 2026-05-06 18:04 | 57.60382 | 12.22450 | 4860 ft | 202 kts | 203° |
| 2026-05-06 18:04 | 57.59010 | 12.21299 | 5051 ft | 236 kts | 204° |
| 2026-05-06 18:04 | 57.57520 | 12.19585 | 5030 ft | 262 kts | 224° |
| 2026-05-06 18:05 | 57.56599 | 12.16779 | 5041 ft | 259 kts | 250° |
| 2026-05-06 18:05 | 57.56187 | 12.13393 | 5603 ft | 272 kts | 257° |
| 2026-05-06 18:05 | 57.55849 | 12.09994 | 6945 ft | 266 kts | 257° |
| 2026-05-06 18:05 | 57.55501 | 12.06570 | 8001 ft | 269 kts | 257° |
| 2026-05-06 18:06 | 57.55146 | 12.03109 | 9003 ft | 274 kts | 257° |
| 2026-05-06 18:06 | 57.54782 | 11.99592 | 9973 ft | 278 kts | 258° |
| 2026-05-06 18:06 | 57.54408 | 11.96019 | 10709 ft | 289 kts | 258° |
| 2026-05-06 18:06 | 57.54051 | 11.92245 | 11238 ft | 303 kts | 265° |
| 2026-05-06 18:07 | 57.54129 | 11.88251 | 11883 ft | 311 kts | 275° |
| 2026-05-06 18:07 | 57.54361 | 11.84216 | 12715 ft | 315 kts | 276° |
| 2026-05-06 18:07 | 57.54607 | 11.80152 | 13546 ft | 318 kts | 276° |
| 2026-05-06 18:07 | 57.54852 | 11.76092 | 14297 ft | 319 kts | 276° |
| 2026-05-06 18:08 | 57.55101 | 11.71916 | 15045 ft | 322 kts | 276° |
| 2026-05-06 18:08 | 57.55345 | 11.67815 | 15768 ft | 323 kts | 276° |
| 2026-05-06 18:08 | 57.55591 | 11.63633 | 16494 ft | 325 kts | 275° |
| 2026-05-06 18:08 | 57.55836 | 11.59432 | 17201 ft | 328 kts | 275° |
| 2026-05-06 18:09 | 57.56082 | 11.55183 | 17919 ft | 330 kts | 275° |
| 2026-05-06 18:09 | 57.56327 | 11.50920 | 18560 ft | 332 kts | 275° |
| 2026-05-06 18:09 | 57.56572 | 11.46636 | 19172 ft | 333 kts | 275° |
| 2026-05-06 18:09 | 57.56817 | 11.42328 | 19786 ft | 334 kts | 274° |
| 2026-05-06 18:10 | 57.57060 | 11.38000 | 20347 ft | 337 kts | 274° |
| 2026-05-06 18:10 | 57.57304 | 11.33654 | 20943 ft | 339 kts | 274° |
| 2026-05-06 18:10 | 57.57544 | 11.29334 | 21504 ft | 340 kts | 274° |
| 2026-05-06 18:10 | 57.57787 | 11.24940 | 22067 ft | 342 kts | 274° |
| 2026-05-06 18:11 | 57.58030 | 11.20500 | 22625 ft | 344 kts | 274° |
| 2026-05-06 18:11 | 57.58191 | 11.17550 | 22984 ft | 346 kts | 273° |
| 2026-05-06 18:11 | 57.58583 | 11.11565 | 23631 ft | 352 kts | 281° |
| 2026-05-06 18:11 | 57.59620 | 11.07395 | 24093 ft | 362 kts | 300° |
| 2026-05-06 18:12 | 57.61430 | 11.03998 | 24487 ft | 376 kts | 316° |
| 2026-05-06 18:12 | 57.63583 | 11.01168 | 24872 ft | 382 kts | 320° |
| 2026-05-06 18:12 | 57.65827 | 10.98424 | 25272 ft | 385 kts | 320° |
| 2026-05-06 18:12 | 57.68088 | 10.95690 | 25659 ft | 388 kts | 320° |
| 2026-05-06 18:13 | 57.70333 | 10.92973 | 26032 ft | 391 kts | 320° |
| 2026-05-06 18:13 | 57.72632 | 10.90187 | 26411 ft | 393 kts | 320° |
| 2026-05-06 18:13 | 57.74926 | 10.87401 | 26775 ft | 396 kts | 320° |
| 2026-05-06 18:13 | 57.77247 | 10.84581 | 27137 ft | 399 kts | 320° |
| 2026-05-06 18:14 | 57.79585 | 10.81735 | 27496 ft | 401 kts | 319° |
| 2026-05-06 18:14 | 57.81929 | 10.78877 | 27855 ft | 403 kts | 319° |
| 2026-05-06 18:14 | 57.84292 | 10.75991 | 28213 ft | 406 kts | 319° |
| 2026-05-06 18:14 | 57.86664 | 10.73091 | 28551 ft | 408 kts | 319° |
| 2026-05-06 18:15 | 57.89023 | 10.70202 | 28880 ft | 410 kts | 319° |
| 2026-05-06 18:15 | 57.91416 | 10.67266 | 29217 ft | 412 kts | 319° |
| 2026-05-06 18:15 | 57.93836 | 10.64291 | 29532 ft | 414 kts | 319° |
| 2026-05-06 18:15 | 57.96263 | 10.61305 | 29837 ft | 417 kts | 319° |
| 2026-05-06 18:16 | 57.98692 | 10.58309 | 30123 ft | 419 kts | 319° |
| 2026-05-06 18:16 | 58.01135 | 10.55293 | 30379 ft | 420 kts | 319° |
| 2026-05-06 18:16 | 58.03554 | 10.52300 | 30635 ft | 421 kts | 319° |
| 2026-05-06 18:16 | 58.06006 | 10.49263 | 30885 ft | 423 kts | 319° |
| 2026-05-06 18:17 | 58.08483 | 10.46189 | 31116 ft | 425 kts | 319° |
| 2026-05-06 18:17 | 58.10956 | 10.43115 | 31340 ft | 426 kts | 319° |
| 2026-05-06 18:17 | 58.13445 | 10.40015 | 31569 ft | 427 kts | 319° |
| 2026-05-06 18:17 | 58.15931 | 10.36914 | 31776 ft | 429 kts | 319° |
| 2026-05-06 18:18 | 58.18397 | 10.33833 | 31979 ft | 430 kts | 319° |
| 2026-05-06 18:18 | 58.20898 | 10.30703 | 32177 ft | 431 kts | 319° |
| 2026-05-06 18:18 | 58.23409 | 10.27555 | 32369 ft | 432 kts | 319° |
| 2026-05-06 18:18 | 58.25921 | 10.24401 | 32555 ft | 434 kts | 319° |
| 2026-05-06 18:19 | 58.28441 | 10.21231 | 32741 ft | 435 kts | 319° |
| 2026-05-06 18:19 | 58.30944 | 10.18077 | 32893 ft | 436 kts | 318° |
| 2026-05-06 18:19 | 58.33459 | 10.14816 | 33040 ft | 434 kts | 315° |
| 2026-05-06 18:19 | 58.35808 | 10.11230 | 33212 ft | 432 kts | 313° |
| 2026-05-06 18:20 | 58.38119 | 10.07568 | 33354 ft | 433 kts | 312° |
| 2026-05-06 18:20 | 58.39651 | 10.05130 | 33500 ft | 432 kts | 312° |
| 2026-05-06 18:20 | 58.41961 | 10.01450 | 33713 ft | 432 kts | 312° |
| 2026-05-06 18:20 | 58.44268 | 9.97771 | 33933 ft | 431 kts | 312° |
| 2026-05-06 18:21 | 58.46569 | 9.94095 | 34098 ft | 431 kts | 312° |
| 2026-05-06 18:21 | 58.48872 | 9.90411 | 34237 ft | 432 kts | 312° |
| 2026-05-06 18:21 | 58.51170 | 9.86729 | 34397 ft | 432 kts | 313° |
| 2026-05-06 18:21 | 58.53477 | 9.83028 | 34545 ft | 432 kts | 313° |
| 2026-05-06 18:22 | 58.55784 | 9.79320 | 34684 ft | 432 kts | 313° |
| 2026-05-06 18:22 | 58.58060 | 9.75656 | 34826 ft | 432 kts | 313° |
| 2026-05-06 18:22 | 58.60356 | 9.71953 | 34976 ft | 432 kts | 313° |
| 2026-05-06 18:22 | 58.62657 | 9.68237 | 35112 ft | 432 kts | 313° |
| 2026-05-06 18:23 | 58.64958 | 9.64514 | 35250 ft | 433 kts | 313° |
| 2026-05-06 18:23 | 58.67264 | 9.60775 | 35392 ft | 433 kts | 313° |
| 2026-05-06 18:23 | 58.69570 | 9.57032 | 35533 ft | 433 kts | 313° |
| 2026-05-06 18:23 | 58.71874 | 9.53282 | 35679 ft | 433 kts | 313° |
| 2026-05-06 18:24 | 58.74172 | 9.49537 | 35813 ft | 433 kts | 313° |
| 2026-05-06 18:24 | 58.76477 | 9.45775 | 35925 ft | 434 kts | 313° |
| 2026-05-06 18:24 | 58.81110 | 9.38187 | 35969 ft | 440 kts | 313° |
| 2026-05-06 18:25 | 58.85732 | 9.30601 | 35956 ft | 432 kts | 313° |
| 2026-05-06 18:25 | 58.90269 | 9.23125 | 35966 ft | 429 kts | 313° |
| 2026-05-06 18:26 | 58.94847 | 9.15540 | 35964 ft | 437 kts | 313° |
| 2026-05-06 18:26 | 58.99476 | 9.07853 | 35949 ft | 434 kts | 313° |
| 2026-05-06 18:27 | 59.03998 | 9.00307 | 35958 ft | 427 kts | 311° |
| 2026-05-06 18:27 | 59.08285 | 8.92240 | 35962 ft | 432 kts | 309° |
| 2026-05-06 18:28 | 59.12559 | 8.84034 | 35956 ft | 431 kts | 309° |
| 2026-05-06 18:28 | 59.16782 | 8.75913 | 35967 ft | 425 kts | 309° |
| 2026-05-06 18:29 | 59.21024 | 8.67717 | 35974 ft | 432 kts | 309° |
| 2026-05-06 18:29 | 59.25284 | 8.59473 | 35973 ft | 427 kts | 309° |
| 2026-05-06 18:30 | 59.29496 | 8.51283 | 35979 ft | 428 kts | 309° |
| 2026-05-06 18:30 | 59.33734 | 8.43014 | 35983 ft | 430 kts | 309° |
| 2026-05-06 18:31 | 59.37925 | 8.34813 | 35985 ft | 427 kts | 309° |
| 2026-05-06 18:31 | 59.42142 | 8.26525 | 35992 ft | 431 kts | 309° |
| 2026-05-06 18:32 | 59.46368 | 8.18193 | 35994 ft | 428 kts | 309° |
| 2026-05-06 18:32 | 59.50564 | 8.09886 | 36000 ft | 428 kts | 309° |
| 2026-05-06 18:33 | 59.54785 | 8.01497 | 36003 ft | 431 kts | 309° |
| 2026-05-06 18:33 | 59.58960 | 7.93174 | 36007 ft | 428 kts | 309° |
| 2026-05-06 18:34 | 59.63157 | 7.84769 | 36012 ft | 430 kts | 309° |
| 2026-05-06 18:34 | 59.67348 | 7.76350 | 36009 ft | 428 kts | 309° |
| 2026-05-06 18:35 | 59.71529 | 7.67914 | 36017 ft | 430 kts | 309° |
| 2026-05-06 18:35 | 59.75717 | 7.59435 | 36016 ft | 428 kts | 309° |
| 2026-05-06 18:36 | 59.79861 | 7.51010 | 35327 ft | 435 kts | 309° |
| 2026-05-06 18:36 | 59.82026 | 7.46586 | 33495 ft | 457 kts | 308° |
| 2026-05-06 18:36 | 59.84213 | 7.42133 | 32966 ft | 440 kts | 308° |
| 2026-05-06 18:37 | 59.86298 | 7.37891 | 32744 ft | 419 kts | 307° |
| 2026-05-06 18:37 | 59.88313 | 7.33773 | 32114 ft | 410 kts | 307° |
| 2026-05-06 18:37 | 59.90285 | 7.29729 | 31388 ft | 404 kts | 306° |
| 2026-05-06 18:37 | 59.92234 | 7.25718 | 30582 ft | 401 kts | 305° |
| 2026-05-06 18:38 | 59.94163 | 7.21740 | 29715 ft | 396 kts | 304° |
| 2026-05-06 18:38 | 59.96071 | 7.17795 | 28764 ft | 392 kts | 305° |
| 2026-05-06 18:38 | 59.97953 | 7.13895 | 27840 ft | 387 kts | 305° |
| 2026-05-06 18:38 | 59.99788 | 7.10088 | 26960 ft | 381 kts | 306° |
| 2026-05-06 18:39 | 60.01610 | 7.06303 | 26108 ft | 375 kts | 306° |
| 2026-05-06 18:39 | 60.03409 | 7.02561 | 25249 ft | 369 kts | 306° |
| 2026-05-06 18:39 | 60.05174 | 6.98881 | 24445 ft | 363 kts | 306° |
| 2026-05-06 18:40 | 60.07767 | 6.90853 | 22725 ft | 333 kts | 279° |
| 2026-05-06 18:40 | 60.07810 | 6.86309 | 21815 ft | 325 kts | 260° |
| 2026-05-06 18:40 | 60.06965 | 6.82130 | 20926 ft | 327 kts | 240° |
| 2026-05-06 18:40 | 60.05496 | 6.78640 | 20067 ft | 325 kts | 237° |
| 2026-05-06 18:41 | 60.04487 | 6.74719 | 19264 ft | 314 kts | 257° |
| 2026-05-06 18:41 | 60.04293 | 6.70520 | 19288 ft | 298 kts | 272° |
| 2026-05-06 18:41 | 60.04654 | 6.66345 | 19301 ft | 311 kts | 282° |
| 2026-05-06 18:41 | 60.04850 | 6.62127 | 19299 ft | 301 kts | 266° |
| 2026-05-06 18:42 | 60.05122 | 6.58066 | 19184 ft | 308 kts | 288° |
| 2026-05-06 18:42 | 60.06389 | 6.54493 | 18795 ft | 324 kts | 309° |
| 2026-05-06 18:42 | 60.08025 | 6.51421 | 18339 ft | 317 kts | 311° |
| 2026-05-06 18:42 | 60.09633 | 6.48443 | 17865 ft | 314 kts | 311° |
| 2026-05-06 18:43 | 60.11343 | 6.45693 | 17435 ft | 315 kts | 318° |
| 2026-05-06 18:43 | 60.12977 | 6.42843 | 17018 ft | 311 kts | 311° |
| 2026-05-06 18:43 | 60.14337 | 6.39584 | 16625 ft | 303 kts | 301° |
| 2026-05-06 18:43 | 60.15555 | 6.36104 | 16236 ft | 304 kts | 301° |
| 2026-05-06 18:44 | 60.16746 | 6.32652 | 15838 ft | 303 kts | 301° |
| 2026-05-06 18:44 | 60.17933 | 6.29164 | 15441 ft | 303 kts | 301° |
| 2026-05-06 18:44 | 60.19109 | 6.25650 | 15042 ft | 302 kts | 301° |
| 2026-05-06 18:44 | 60.20280 | 6.22109 | 14641 ft | 304 kts | 301° |
| 2026-05-06 18:45 | 60.21447 | 6.18544 | 14248 ft | 304 kts | 301° |
| 2026-05-06 18:45 | 60.22596 | 6.14974 | 13843 ft | 303 kts | 301° |
| 2026-05-06 18:45 | 60.23732 | 6.11389 | 13408 ft | 304 kts | 301° |
| 2026-05-06 18:45 | 60.24859 | 6.07798 | 12988 ft | 302 kts | 301° |
| 2026-05-06 18:46 | 60.25972 | 6.04228 | 12803 ft | 298 kts | 301° |
| 2026-05-06 18:46 | 60.27085 | 6.00645 | 12569 ft | 307 kts | 301° |
| 2026-05-06 18:46 | 60.28210 | 5.97011 | 12194 ft | 302 kts | 301° |
| 2026-05-06 18:46 | 60.29173 | 5.93349 | 11731 ft | 300 kts | 295° |
| 2026-05-06 18:47 | 60.29940 | 5.89494 | 11305 ft | 290 kts | 287° |
| 2026-05-06 18:47 | 60.30440 | 5.85544 | 10747 ft | 290 kts | 288° |
| 2026-05-06 18:47 | 60.31258 | 5.81899 | 10509 ft | 280 kts | 304° |
| 2026-05-06 18:47 | 60.32437 | 5.78848 | 10316 ft | 272 kts | 308° |
| 2026-05-06 18:48 | 60.33519 | 5.75735 | 10019 ft | 271 kts | 301° |
| 2026-05-06 18:48 | 60.34498 | 5.72546 | 9643 ft | 269 kts | 301° |
| 2026-05-06 18:48 | 60.35469 | 5.69372 | 9289 ft | 267 kts | 301° |
| 2026-05-06 18:48 | 60.36452 | 5.66163 | 8935 ft | 265 kts | 301° |
| 2026-05-06 18:49 | 60.37424 | 5.62991 | 8581 ft | 264 kts | 301° |
| 2026-05-06 18:49 | 60.38390 | 5.59830 | 8239 ft | 264 kts | 301° |
| 2026-05-06 18:49 | 60.39353 | 5.56683 | 7897 ft | 264 kts | 301° |
| 2026-05-06 18:49 | 60.40334 | 5.53488 | 7540 ft | 266 kts | 301° |
| 2026-05-06 18:50 | 60.41308 | 5.50312 | 7158 ft | 264 kts | 301° |
| 2026-05-06 18:50 | 60.42266 | 5.47195 | 6788 ft | 254 kts | 301° |
| 2026-05-06 18:50 | 60.43160 | 5.44292 | 6518 ft | 240 kts | 301° |
| 2026-05-06 18:50 | 60.44033 | 5.41465 | 6260 ft | 227 kts | 301° |
| 2026-05-06 18:51 | 60.44866 | 5.38765 | 5739 ft | 226 kts | 301° |
| 2026-05-06 18:51 | 60.45696 | 5.36074 | 5267 ft | 225 kts | 301° |
| 2026-05-06 18:51 | 60.46512 | 5.33430 | 4801 ft | 223 kts | 301° |
| 2026-05-06 18:51 | 60.47332 | 5.30775 | 4331 ft | 222 kts | 301° |
| 2026-05-06 18:52 | 60.48151 | 5.28123 | 3851 ft | 221 kts | 301° |
| 2026-05-06 18:52 | 60.48959 | 5.25487 | 3406 ft | 220 kts | 300° |
| 2026-05-06 18:52 | 60.49352 | 5.22577 | 3087 ft | 215 kts | 265° |
| 2026-05-06 18:52 | 60.49141 | 5.19575 | 3049 ft | 217 kts | 261° |
| 2026-05-06 18:53 | 60.48507 | 5.16815 | 3030 ft | 220 kts | 226° |
| 2026-05-06 18:53 | 60.47175 | 5.15386 | 3058 ft | 221 kts | 193° |
| 2026-05-06 18:53 | 60.45722 | 5.14971 | 3022 ft | 204 kts | 180° |
| 2026-05-06 18:53 | 60.44390 | 5.15611 | 3057 ft | 186 kts | 164° |
| 2026-05-06 18:54 | 60.43220 | 5.16403 | 2998 ft | 173 kts | 164° |
| 2026-05-06 18:54 | 60.42120 | 5.17162 | 2797 ft | 167 kts | 163° |
| 2026-05-06 18:54 | 60.40988 | 5.17781 | 2375 ft | 171 kts | 173° |
| 2026-05-06 18:54 | 60.39835 | 5.18199 | 2123 ft | 165 kts | 171° |
| 2026-05-06 18:55 | 60.38720 | 5.18641 | 1888 ft | 162 kts | 172° |
| 2026-05-06 18:55 | 60.37621 | 5.19021 | 1669 ft | 158 kts | 173° |
| 2026-05-06 18:55 | 60.36542 | 5.19373 | 1447 ft | 155 kts | 173° |
| 2026-05-06 18:55 | 60.35507 | 5.19722 | 1236 ft | 152 kts | 172° |
| 2026-05-06 18:56 | 60.34472 | 5.20077 | 1025 ft | 149 kts | 172° |
| 2026-05-06 18:56 | 60.33461 | 5.20418 | 813 ft | 146 kts | 171° |
| 2026-05-06 18:56 | 60.32466 | 5.20755 | 614 ft | 143 kts | 171° |
| 2026-05-06 18:56 | 60.31495 | 5.21083 | 417 ft | 140 kts | 171° |
| 2026-05-06 18:57 | 60.30545 | 5.21412 | 228 ft | 138 kts | 170° |
| 2026-05-06 18:57 | 60.29690 | 5.21701 | 171 ft | 101 kts | 170° |
| 2026-05-06 18:57 | 60.29261 | 5.21847 | 166 ft | 49 kts | 170° |
| 2026-05-06 18:57 | 60.28990 | 5.21939 | 164 ft | 29 kts | 170° |
| 2026-05-06 18:58 | 60.28922 | 5.22017 | 163 ft | 9 kts | 115° |
| 2026-05-06 18:58 | 60.28920 | 5.22123 | 163 ft | 4 kts | 80° |
| 2026-05-06 18:58 | 60.28925 | 5.22176 | 163 ft | 4 kts | 80° |
| 2026-05-06 18:58 | 60.28927 | 5.22202 | 164 ft | 1 kts | 80° |
| 2026-05-06 18:59 | 60.28936 | 5.22303 | 164 ft | 10 kts | 78° |
| 2026-05-06 18:59 | 60.28951 | 5.22421 | 164 ft | 9 kts | 85° |
| 2026-05-06 18:59 | 60.28940 | 5.22501 | 164 ft | 0 kts | 112° |